Bookmark and Share
Track history (hours):
 

Mr Thomas

More information available from US FCC via Universal Licensing System and Coast Guard Vessel Documentation Center.

Last reported at 2014-Apr-24 03:11 UTC. Time now 2014-Apr-24 13:34 UTC.
Position N 29°21' W 091°25'.

Length 21 m.

Type: Tug. MMSI: 367182730.

NotesDate/timePositionNaut miles runAvg speedWind from/ knotsBaromVisibWave heightAir tempDewpointWater temp
2014-Apr-24 03:11N 29°21' W 091°25'0 0.0
2014-Apr-24 02:23N 29°21' W 091°25'0 0.0
2014-Apr-24 01:32N 29°21' W 091°25'0 0.1
2014-Apr-24 00:32N 29°21' W 091°25'8 7.6
2014-Apr-23 23:31N 29°27' W 091°19'9 9.0
2014-Apr-23 22:33N 29°34' W 091°14'8 7.6
2014-Apr-23 21:32N 29°42' W 091°13'0 0.5
2014-Apr-23 20:31N 29°42' W 091°13'0 0.0
2014-Apr-23 19:31N 29°42' W 091°13'0 0.0
2014-Apr-23 18:31N 29°42' W 091°13'2 1.5
2014-Apr-23 17:32N 29°41' W 091°13'4 4.5
2014-Apr-23 16:33N 29°37' W 091°15'5 4.7
2014-Apr-23 15:34N 29°32' W 091°16'6 6.2
2014-Apr-23 14:33N 29°26' W 091°19'8 7.5
2014-Apr-23 13:32N 29°20' W 091°25'6 0.3
2014-Apr-22 20:22N 29°25' W 091°21'7 9.0
2014-Apr-22 19:34N 29°31' W 091°16'8 8.3
2014-Apr-22 18:34N 29°39' W 091°15'2 2.3
2014-Apr-22 17:33N 29°41' W 091°13'1 1.3
2014-Apr-22 16:33N 29°42' W 091°13'0 0.0
2014-Apr-22 15:33N 29°42' W 091°13'0 0.0
2014-Apr-22 14:33N 29°42' W 091°13'0 0.0
2014-Apr-22 13:33N 29°42' W 091°13'0 0.0
2014-Apr-22 12:33N 29°42' W 091°13'0 0.0
2014-Apr-22 11:33N 29°42' W 091°13'0 0.0
2014-Apr-22 10:30N 29°42' W 091°13'3 2.8
2014-Apr-22 09:33N 29°40' W 091°14'5 5.2
2014-Apr-22 08:34N 29°35' W 091°14'13 2.5
2014-Apr-22 03:11N 29°23' W 091°22'710.3
2014-Apr-22 02:32N 29°28' W 091°17'9 9.3
2014-Apr-22 01:33N 29°37' W 091°15'5 5.3
2014-Apr-22 00:33N 29°42' W 091°13'2 2.1
2014-Apr-21 23:31N 29°40' W 091°14'0 0.0
2014-Apr-21 22:33N 29°40' W 091°14'4 4.2
2014-Apr-21 21:34N 29°36' W 091°14'7 6.5
2014-Apr-21 20:33N 29°30' W 091°16'7 7.2
2014-Apr-21 19:31N 29°24' W 091°22'4 0.7
2014-Apr-21 13:33N 29°21' W 091°25'0 0.0
2014-Apr-21 12:15N 29°21' W 091°25'0 0.0
2014-Apr-21 11:24N 29°21' W 091°25'0 0.0
2014-Apr-21 10:33N 29°21' W 091°25'0 0.0
2014-Apr-21 09:24N 29°21' W 091°25'0 0.0
2014-Apr-21 08:33N 29°21' W 091°25'0 0.0
2014-Apr-21 06:30N 29°21' W 091°25'0 0.0
2014-Apr-21 05:33N 29°21' W 091°25'0 0.0
2014-Apr-21 04:33N 29°21' W 091°25'0 0.0
2014-Apr-21 03:33N 29°21' W 091°25'0 0.0
2014-Apr-21 02:33N 29°21' W 091°25'0 0.0
2014-Apr-21 01:33N 29°21' W 091°25'0 0.0
2014-Apr-21 00:21N 29°21' W 091°25'0 0.0
2014-Apr-20 15:21N 29°21' W 091°25'0 0.0
2014-Apr-20 06:30N 29°21' W 091°25'0 0.0
2014-Apr-20 05:33N 29°21' W 091°25'0 0.0
2014-Apr-20 04:33N 29°21' W 091°25'0 0.0
2014-Apr-20 03:33N 29°21' W 091°25'0 0.0
2014-Apr-20 01:30N 29°21' W 091°25'0 0.0
2014-Apr-19 20:21N 29°21' W 091°25'0 0.0
2014-Apr-19 18:27N 29°21' W 091°25'11 5.7
2014-Apr-19 16:32N 29°29' W 091°16'9 8.9
2014-Apr-19 15:33N 29°38' W 091°15'5 4.6
2014-Apr-19 14:33N 29°42' W 091°13'1 1.1
2014-Apr-19 13:33N 29°41' W 091°13'0 0.0
2014-Apr-19 12:33N 29°41' W 091°13'0 0.0
2014-Apr-19 11:33N 29°41' W 091°13'0 0.0
2014-Apr-19 10:33N 29°41' W 091°13'0 0.0
2014-Apr-19 09:33N 29°41' W 091°13'0 0.0
2014-Apr-19 08:33N 29°41' W 091°13'0 0.0
2014-Apr-19 07:33N 29°41' W 091°13'0 0.0
2014-Apr-19 06:33N 29°41' W 091°13'0 0.0
2014-Apr-19 05:33N 29°41' W 091°13'0 0.0
2014-Apr-19 04:33N 29°41' W 091°13'0 0.0
2014-Apr-19 03:33N 29°41' W 091°13'0 0.0
2014-Apr-19 02:33N 29°41' W 091°13'0 0.0
2014-Apr-19 01:33N 29°41' W 091°13'0 0.0
2014-Apr-19 00:33N 29°41' W 091°13'0 0.0
2014-Apr-18 23:33N 29°41' W 091°13'0 0.0
2014-Apr-18 22:33N 29°41' W 091°13'0 0.0
2014-Apr-18 21:33N 29°41' W 091°13'0 0.0
2014-Apr-18 20:33N 29°41' W 091°13'1 0.9
2014-Apr-18 19:32N 29°40' W 091°14'2 2.4
2014-Apr-18 18:34N 29°42' W 091°13'0 0.0
2014-Apr-18 17:34N 29°42' W 091°13'0 0.0
2014-Apr-18 16:34N 29°42' W 091°13'0 0.0
2014-Apr-18 15:33N 29°42' W 091°13'0 0.0
2014-Apr-18 14:33N 29°42' W 091°13'5 4.7
2014-Apr-18 13:33N 29°38' W 091°15'6 5.7
2014-Apr-18 12:33N 29°32' W 091°16'7 7.2
2014-Apr-18 11:34N 29°26' W 091°20'6 0.5
2014-Apr-17 23:27N 29°21' W 091°25'0 0.0
2014-Apr-17 22:06N 29°21' W 091°25'0 0.0
2014-Apr-17 17:32N 29°21' W 091°25'8 7.9
2014-Apr-17 16:30N 29°27' W 091°18'8 8.7
2014-Apr-17 15:33N 29°34' W 091°14'8 8.2
2014-Apr-17 14:33N 29°42' W 091°13'2 2.2
2014-Apr-17 13:32N 29°40' W 091°14'2 2.1
2014-Apr-17 12:33N 29°42' W 091°13'0 0.0
2014-Apr-17 11:33N 29°42' W 091°13'0 0.0
2014-Apr-17 10:33N 29°42' W 091°13'0 0.0
2014-Apr-17 09:33N 29°42' W 091°13'0 0.0
2014-Apr-17 08:33N 29°42' W 091°13'0 0.0
2014-Apr-17 07:33N 29°42' W 091°13'0 0.0
2014-Apr-17 06:33N 29°42' W 091°13'0 0.0
2014-Apr-17 05:33N 29°42' W 091°13'0 0.0
2014-Apr-17 04:33N 29°42' W 091°13'0 0.0
2014-Apr-17 03:33N 29°42' W 091°13'0 0.0
2014-Apr-17 02:33N 29°42' W 091°13'1 0.8
2014-Apr-17 01:33N 29°42' W 091°13'0 0.1
2014-Apr-17 00:33N 29°42' W 091°13'0 0.0
2014-Apr-16 23:33N 29°42' W 091°13'0 0.0
2014-Apr-16 22:33N 29°42' W 091°13'0 0.0
2014-Apr-16 21:33N 29°42' W 091°13'0 0.0
2014-Apr-16 20:33N 29°42' W 091°13'0 0.0
2014-Apr-16 19:33N 29°42' W 091°13'0 0.0
2014-Apr-16 18:33N 29°42' W 091°13'0 0.0
2014-Apr-16 17:33N 29°42' W 091°13'0 0.0
2014-Apr-16 16:33N 29°42' W 091°13'0 0.0
2014-Apr-16 15:33N 29°42' W 091°13'0 0.0
2014-Apr-16 14:33N 29°42' W 091°13'2 1.6
2014-Apr-16 13:33N 29°41' W 091°13'0 0.0
2014-Apr-16 12:33N 29°41' W 091°13'0 0.0
2014-Apr-16 11:33N 29°41' W 091°13'0 0.0
2014-Apr-16 10:33N 29°41' W 091°13'0 0.0
2014-Apr-16 09:33N 29°41' W 091°13'0 0.0
2014-Apr-16 08:33N 29°41' W 091°13'0 0.0
2014-Apr-16 07:33N 29°41' W 091°13'0 0.0
2014-Apr-16 06:33N 29°41' W 091°13'0 0.0
2014-Apr-16 05:33N 29°41' W 091°13'0 0.0
2014-Apr-16 04:33N 29°41' W 091°13'0 0.0
2014-Apr-16 03:33N 29°41' W 091°13'0 0.0
2014-Apr-16 02:33N 29°41' W 091°13'0 0.0
2014-Apr-16 01:33N 29°41' W 091°13'0 0.0
2014-Apr-16 00:33N 29°41' W 091°13'0 0.0
2014-Apr-15 23:33N 29°41' W 091°13'0 0.0
2014-Apr-15 22:33N 29°41' W 091°13'0 0.0
2014-Apr-15 21:33N 29°41' W 091°13'0 0.0
2014-Apr-15 20:33N 29°41' W 091°13'0 0.0
2014-Apr-15 19:33N 29°41' W 091°13'0 0.0
2014-Apr-15 18:33N 29°41' W 091°13'0 0.0
2014-Apr-15 17:33N 29°41' W 091°13'0 0.0
2014-Apr-15 16:33N 29°41' W 091°13'0 0.0
2014-Apr-15 15:33N 29°41' W 091°13'0 0.0
2014-Apr-15 14:33N 29°41' W 091°13'0 0.0
2014-Apr-15 12:34N 29°41' W 091°13'0 0.0
2014-Apr-15 11:34N 29°41' W 091°13'2 1.6
2014-Apr-15 10:33N 29°42' W 091°13'0 0.0
2014-Apr-15 09:33N 29°42' W 091°13'0 0.0
2014-Apr-15 08:33N 29°42' W 091°13'0 0.0
2014-Apr-15 07:33N 29°42' W 091°13'0 0.0
2014-Apr-15 06:33N 29°42' W 091°13'0 0.0
2014-Apr-15 05:33N 29°42' W 091°13'0 0.0
2014-Apr-15 03:33N 29°42' W 091°13'0 0.0
2014-Apr-15 02:33N 29°42' W 091°13'0 0.0
2014-Apr-15 01:33N 29°42' W 091°13'1 1.0
2014-Apr-15 00:34N 29°41' W 091°13'6 5.6
2014-Apr-14 23:34N 29°36' W 091°15'6 5.8
2014-Apr-14 22:34N 29°30' W 091°16'7 6.8
2014-Apr-14 21:34N 29°25' W 091°21'1 0.4
2014-Apr-14 18:32N 29°26' W 091°20'8 8.4
2014-Apr-14 17:33N 29°33' W 091°15'8 8.4
2014-Apr-14 16:34N 29°41' W 091°13'1 1.2
2014-Apr-14 15:33N 29°42' W 091°13'2 1.5
2014-Apr-14 14:32N 29°41' W 091°13'0 0.0
2014-Apr-14 13:32N 29°41' W 091°13'0 0.0
2014-Apr-14 11:34N 29°41' W 091°13'0 0.0
2014-Apr-14 10:33N 29°41' W 091°13'0 0.0
2014-Apr-14 09:33N 29°41' W 091°13'0 0.0
2014-Apr-14 08:33N 29°41' W 091°13'0 0.0
2014-Apr-14 07:33N 29°41' W 091°13'0 0.0
2014-Apr-14 06:33N 29°41' W 091°13'0 0.0
2014-Apr-14 05:33N 29°41' W 091°13'  

Dump ship's entire track history

sailing weather and tide predictions

Mr Thomas — WDD7163 — position and weather